Time;durP1;ratioP1;P1;durP2;ratioP2;P2;SDS_P1;SDS_P2;PMS_P1;PMS_P2;Temp;Humidity;BMP_temperature;BMP_pressure;BME280_temperature;BME280_humidity;BME280_pressure;Samples;Min_cycle;Max_cycle;Signal;HPM_P1;HPM_P2
2023/10/12 00:02:13;;;;;;;2.40;1.00;;;13.70;99.90;;;;;;4933217;28;20031;-76
2023/10/12 00:04:43;;;;;;;6.82;1.20;;;13.70;99.90;;;;;;4946810;28;20051;-76
2023/10/12 00:07:15;;;;;;;4.32;1.13;;;13.70;99.90;;;;;;4954878;28;20043;-76
2023/10/12 00:09:47;;;;;;;5.78;1.50;;;13.70;99.90;;;;;;4963190;28;20625;-76
2023/10/12 00:12:14;;;;;;;4.55;1.88;;;13.70;99.90;;;;;;4965205;28;20051;-76
2023/10/12 00:14:41;;;;;;;8.10;1.40;;;13.70;99.90;;;;;;4963267;28;20062;-76
2023/10/12 00:17:07;;;;;;;6.88;1.33;;;13.70;99.90;;;;;;4934138;28;20118;-76
2023/10/12 00:19:33;;;;;;;4.00;1.30;;;13.70;99.90;;;;;;4951010;28;20082;-76
2023/10/12 00:22:02;;;;;;;5.32;1.92;;;13.70;99.90;;;;;;4966998;28;20077;-76
2023/10/12 00:24:28;;;;;;;7.32;0.98;;;13.70;99.90;;;;;;4964930;28;20047;-76
2023/10/12 00:26:54;;;;;;;2.97;0.90;;;13.70;99.90;;;;;;4965903;28;20057;-76
2023/10/12 00:29:21;;;;;;;2.80;0.82;;;13.60;99.90;;;;;;4966550;28;20093;-76
2023/10/12 00:31:48;;;;;;;6.78;0.93;;;13.70;99.90;;;;;;4954060;28;20075;-76
2023/10/12 00:34:16;;;;;;;3.33;1.05;;;13.70;99.90;;;;;;4957929;28;20177;-76
2023/10/12 00:36:45;;;;;;;7.55;1.05;;;13.70;99.90;;;;;;4948856;28;20042;-76
2023/10/12 00:39:11;;;;;;;6.63;1.30;;;13.70;99.90;;;;;;4964514;28;20055;-77
2023/10/12 00:41:44;;;;;;;1.90;0.77;;;13.60;99.90;;;;;;4944360;28;20046;-76
2023/10/12 00:44:10;;;;;;;1.02;0.70;;;13.60;99.90;;;;;;4945607;28;20055;-76
2023/10/12 00:49:22;;;;;;;2.85;0.57;;;13.60;99.90;;;;;;4958151;28;20055;-76
2023/10/12 00:51:52;;;;;;;5.72;0.80;;;13.60;99.90;;;;;;4964466;28;20043;-76
2023/10/12 00:57:05;;;;;;;3.55;0.88;;;13.60;99.90;;;;;;4964981;28;20457;-76
2023/10/12 00:59:34;;;;;;;4.43;0.70;;;13.50;99.90;;;;;;4963947;28;20516;-76
2023/10/12 01:02:02;;;;;;;5.50;0.95;;;13.50;99.90;;;;;;4964168;28;20110;-76
2023/10/12 01:04:31;;;;;;;2.80;0.82;;;13.50;99.90;;;;;;4960802;28;20047;-75
2023/10/12 01:07:00;;;;;;;5.72;1.27;;;13.50;99.90;;;;;;4948179;28;20150;-76
2023/10/12 01:09:38;;;;;;;4.88;1.30;;;13.50;99.90;;;;;;4944517;28;20094;-76
2023/10/12 01:12:06;;;;;;;2.60;0.85;;;13.40;99.90;;;;;;4949208;28;20077;-76
2023/10/12 01:14:33;;;;;;;6.22;1.52;;;13.50;99.90;;;;;;4963088;28;20045;-76
2023/10/12 01:16:58;;;;;;;4.15;0.73;;;13.50;99.90;;;;;;4963760;28;20379;-78
2023/10/12 01:19:33;;;;;;;1.45;0.85;;;13.50;99.90;;;;;;4963747;28;20131;-76
2023/10/12 01:22:12;;;;;;;4.38;1.13;;;13.50;99.90;;;;;;4965379;28;20108;-76
2023/10/12 01:27:20;;;;;;;6.03;0.70;;;13.50;99.90;;;;;;4964291;28;20061;-76
2023/10/12 01:29:46;;;;;;;1.10;0.70;;;13.40;99.90;;;;;;4964154;28;20082;-76
2023/10/12 01:34:38;;;;;;;3.42;0.90;;;13.50;99.90;;;;;;4945921;28;20461;-77
2023/10/12 01:37:11;;;;;;;0.68;0.50;;;13.40;99.90;;;;;;4946479;28;20105;-76
2023/10/12 01:39:39;;;;;;;2.38;0.60;;;13.40;99.90;;;;;;4928804;28;20039;-76
2023/10/12 01:42:06;;;;;;;1.95;0.73;;;13.40;99.90;;;;;;4957681;28;20482;-76
2023/10/12 01:44:32;;;;;;;2.00;0.80;;;13.40;99.90;;;;;;4964029;28;20047;-76
2023/10/12 01:46:58;;;;;;;3.53;0.95;;;13.40;99.90;;;;;;4964079;28;20043;-76
2023/10/12 01:49:23;;;;;;;4.13;1.55;;;13.40;99.90;;;;;;4963821;28;20049;-76
2023/10/12 01:51:49;;;;;;;6.38;1.75;;;13.30;99.90;;;;;;4964854;28;20098;-76
2023/10/12 01:54:28;;;;;;;2.75;0.68;;;13.30;99.90;;;;;;4960241;28;20064;-76
2023/10/12 01:56:55;;;;;;;4.15;1.13;;;13.30;99.90;;;;;;4928950;29;20538;-76
2023/10/12 01:59:21;;;;;;;7.00;0.80;;;13.30;99.90;;;;;;4944212;28;20545;-76
2023/10/12 02:01:53;;;;;;;1.67;0.77;;;13.30;99.90;;;;;;4944203;28;20046;-77
2023/10/12 02:04:21;;;;;;;2.28;0.75;;;13.30;99.90;;;;;;4929003;29;20031;-76
2023/10/12 02:06:47;;;;;;;4.13;1.50;;;13.20;99.90;;;;;;4944124;28;20039;-76
2023/10/12 02:09:15;;;;;;;2.08;1.00;;;13.30;99.90;;;;;;4943694;28;20055;-76
2023/10/12 02:11:53;;;;;;;4.32;0.80;;;13.20;99.90;;;;;;4928533;29;20130;-77
2023/10/12 02:14:32;;;;;;;2.42;0.65;;;13.20;99.90;;;;;;4944278;28;20058;-76
2023/10/12 02:17:02;;;;;;;1.33;0.77;;;13.10;99.90;;;;;;4943648;28;20407;-76
2023/10/12 02:19:43;;;;;;;3.45;0.75;;;13.10;99.90;;;;;;4943864;28;20047;-76
2023/10/12 02:22:24;;;;;;;1.60;0.75;;;13.20;99.90;;;;;;4928292;28;20039;-76
2023/10/12 02:27:34;;;;;;;4.32;0.80;;;13.10;99.90;;;;;;4944127;28;20106;-76
2023/10/12 02:29:59;;;;;;;1.92;1.00;;;13.10;99.90;;;;;;4944242;28;20490;-76
2023/10/12 02:32:25;;;;;;;3.22;1.85;;;13.10;99.90;;;;;;4941918;28;20086;-76
2023/10/12 02:34:56;;;;;;;3.17;0.57;;;13.10;99.90;;;;;;4944227;28;20047;-77
2023/10/12 02:37:24;;;;;;;1.00;0.57;;;13.10;99.90;;;;;;4935350;28;20047;-76
2023/10/12 02:39:53;;;;;;;3.30;0.70;;;13.00;99.90;;;;;;4943355;28;20111;-78
2023/10/12 02:42:22;;;;;;;5.47;0.80;;;13.00;99.90;;;;;;4943503;28;20043;-76
2023/10/12 02:47:22;;;;;;;2.05;1.05;;;13.00;99.90;;;;;;4942323;28;20142;-76
2023/10/12 02:49:59;;;;;;;0.98;0.60;;;13.00;99.90;;;;;;4944023;28;20059;-76
2023/10/12 02:52:25;;;;;;;1.80;0.95;;;13.00;99.90;;;;;;4943462;28;20039;-76
2023/10/12 02:54:51;;;;;;;2.08;0.63;;;13.00;99.90;;;;;;4943632;28;20391;-76
2023/10/12 02:57:24;;;;;;;7.45;0.75;;;12.90;99.90;;;;;;4943415;28;20561;-76
2023/10/12 03:02:40;;;;;;;4.22;0.85;;;12.90;99.90;;;;;;4943306;28;20062;-76
2023/10/12 03:05:07;;;;;;;2.65;0.85;;;12.90;99.90;;;;;;4954159;28;20054;-76
2023/10/12 03:07:38;;;;;;;1.85;0.60;;;12.90;99.90;;;;;;4952410;28;20057;-76
2023/10/12 03:10:23;;;;;;;3.67;0.60;;;12.80;99.90;;;;;;4944061;28;20525;-76
2023/10/12 03:12:54;;;;;;;2.55;0.80;;;12.90;99.90;;;;;;4943227;28;20075;-76
2023/10/12 03:15:27;;;;;;;3.28;1.60;;;12.90;99.90;;;;;;4943666;28;20036;-77
2023/10/12 03:17:58;;;;;;;1.85;0.60;;;12.90;99.90;;;;;;4942656;28;20738;-77
2023/10/12 03:20:28;;;;;;;1.45;1.20;;;12.90;99.90;;;;;;4944660;28;20123;-76
2023/10/12 03:22:59;;;;;;;1.88;0.80;;;12.80;99.90;;;;;;4943589;28;20058;-76
2023/10/12 03:25:43;;;;;;;1.58;0.77;;;12.80;99.90;;;;;;4943389;28;20047;-76
2023/10/12 03:28:13;;;;;;;2.17;1.98;;;12.80;99.90;;;;;;4946699;28;20055;-76
2023/10/12 03:30:53;;;;;;;2.38;0.82;;;12.80;99.90;;;;;;4947335;28;20098;-76
2023/10/12 03:33:19;;;;;;;5.10;1.25;;;12.80;99.90;;;;;;4946142;28;20098;-76
2023/10/12 03:35:52;;;;;;;4.32;0.88;;;12.80;99.90;;;;;;4966546;28;20184;-76
2023/10/12 03:38:19;;;;;;;1.65;0.68;;;12.70;99.90;;;;;;4962967;28;20051;-76
2023/10/12 03:43:20;;;;;;;2.60;1.23;;;12.70;99.90;;;;;;4946572;28;20047;-76
2023/10/12 03:45:59;;;;;;;3.55;1.38;;;12.70;99.90;;;;;;4948323;28;20071;-76
2023/10/12 03:48:33;;;;;;;1.98;0.73;;;12.70;99.90;;;;;;4945698;28;20530;-76
2023/10/12 03:51:11;;;;;;;2.92;1.00;;;12.70;99.90;;;;;;4947022;28;20059;-76
2023/10/12 03:53:45;;;;;;;2.85;0.60;;;12.60;99.90;;;;;;4947086;28;20106;-76
2023/10/12 03:56:14;;;;;;;5.93;0.80;;;12.70;99.90;;;;;;4946220;28;20055;-77
2023/10/12 03:58:46;;;;;;;2.28;0.38;;;12.70;99.90;;;;;;4930840;29;20075;-76
2023/10/12 04:03:53;;;;;;;3.63;0.88;;;12.70;99.90;;;;;;4957661;28;20062;-77
2023/10/12 04:06:24;;;;;;;2.45;0.65;;;12.70;99.90;;;;;;4964606;28;20055;-76
2023/10/12 04:08:54;;;;;;;2.63;1.10;;;12.70;99.90;;;;;;4965680;28;20069;-76
2023/10/12 04:11:47;;;;;;;4.10;1.10;;;12.70;99.90;;;;;;4965703;28;20718;-76
2023/10/12 04:17:06;;;;;;;2.70;0.60;;;12.60;99.90;;;;;;4965086;28;20112;-76
2023/10/12 04:19:32;;;;;;;3.80;0.60;;;12.60;99.90;;;;;;4955159;28;20059;-77
2023/10/12 04:22:15;;;;;;;3.47;1.33;;;12.60;99.90;;;;;;4947843;28;21423;-76
2023/10/12 04:24:43;;;;;;;7.85;0.73;;;12.60;99.90;;;;;;4929776;28;20049;-76
2023/10/12 04:27:38;;;;;;;5.72;1.25;;;12.60;99.90;;;;;;4945896;28;20043;-77
2023/10/12 04:30:18;;;;;;;2.60;0.88;;;12.60;99.90;;;;;;4950629;28;20063;-76
2023/10/12 04:32:57;;;;;;;8.68;0.50;;;12.50;99.90;;;;;;4960606;28;20050;-77
2023/10/12 04:35:44;;;;;;;8.88;0.90;;;12.50;99.90;;;;;;4954439;28;20184;-77
2023/10/12 04:38:56;;;;;;;0.90;0.63;;;12.50;99.90;;;;;;4945042;28;20058;-77
2023/10/12 04:41:24;;;;;;;2.92;0.90;;;12.50;99.90;;;;;;4964907;28;20537;-76
2023/10/12 04:43:53;;;;;;;2.33;0.68;;;12.50;99.90;;;;;;4969849;28;20058;-77
2023/10/12 04:48:50;;;;;;;1.35;0.88;;;12.50;99.90;;;;;;4945598;28;20059;-77
2023/10/12 04:51:21;;;;;;;1.42;0.80;;;12.40;99.90;;;;;;4948601;28;20545;-77
2023/10/12 04:53:57;;;;;;;1.83;0.60;;;12.40;99.90;;;;;;4950114;28;20051;-77
2023/10/12 04:56:23;;;;;;;3.78;0.68;;;12.40;99.90;;;;;;4945390;28;20043;-77
2023/10/12 04:58:59;;;;;;;2.25;0.60;;;12.40;99.90;;;;;;4950984;28;20051;-77
2023/10/12 05:01:40;;;;;;;3.28;0.63;;;12.30;99.90;;;;;;4948519;28;20035;-77
2023/10/12 05:04:09;;;;;;;0.75;0.52;;;12.30;99.90;;;;;;4951564;28;20046;-76
2023/10/12 05:06:46;;;;;;;2.70;0.60;;;12.30;99.90;;;;;;4946428;28;20046;-76
2023/10/12 05:09:12;;;;;;;3.42;1.50;;;12.30;99.90;;;;;;4944895;28;20055;-76
2023/10/12 05:11:38;;;;;;;1.58;0.50;;;12.30;99.90;;;;;;4945366;28;20082;-76
2023/10/12 05:14:15;;;;;;;1.95;1.15;;;12.30;99.90;;;;;;4945319;28;20055;-76
2023/10/12 05:16:42;;;;;;;4.28;1.02;;;12.30;99.90;;;;;;4943543;28;20118;-76
2023/10/12 05:19:11;;;;;;;3.15;1.63;;;12.30;99.90;;;;;;4946946;28;20047;-76
2023/10/12 05:21:38;;;;;;;4.55;0.70;;;12.30;99.90;;;;;;4944763;28;20519;-76
2023/10/12 05:24:04;;;;;;;3.78;0.85;;;12.30;99.90;;;;;;4945775;28;20516;-76
2023/10/12 05:26:30;;;;;;;1.85;0.63;;;12.30;99.90;;;;;;4944897;28;20043;-76
2023/10/12 05:29:17;;;;;;;4.10;0.93;;;12.30;99.90;;;;;;4952161;28;20058;-75
2023/10/12 05:31:58;;;;;;;1.90;1.33;;;12.30;99.90;;;;;;4948802;28;20058;-74
2023/10/12 05:34:32;;;;;;;1.67;1.17;;;12.30;99.90;;;;;;4950173;28;20054;-75
2023/10/12 05:37:08;;;;;;;3.00;0.90;;;12.30;99.90;;;;;;4939881;28;20031;-75
2023/10/12 05:39:36;;;;;;;0.68;0.50;;;12.20;99.90;;;;;;4964503;28;20501;-74
2023/10/12 05:42:05;;;;;;;1.52;1.30;;;12.20;99.90;;;;;;4965425;28;20514;-74
2023/10/12 05:44:31;;;;;;;3.55;0.93;;;12.20;99.90;;;;;;4957639;28;20090;-74
2023/10/12 05:47:00;;;;;;;3.05;0.80;;;12.10;99.90;;;;;;4927368;28;20442;-74
2023/10/12 05:49:25;;;;;;;3.40;1.02;;;12.10;99.90;;;;;;4945734;28;20090;-75
2023/10/12 05:51:51;;;;;;;2.80;1.40;;;12.10;99.90;;;;;;4944578;28;20090;-75
2023/10/12 05:54:20;;;;;;;1.75;1.17;;;12.10;99.90;;;;;;4944661;28;20062;-75
2023/10/12 05:56:49;;;;;;;5.28;0.90;;;12.00;99.90;;;;;;4944074;28;20485;-75
2023/10/12 05:59:15;;;;;;;4.18;0.65;;;12.00;99.90;;;;;;4961037;28;20057;-76
2023/10/12 06:01:48;;;;;;;1.10;0.55;;;12.00;99.90;;;;;;4963698;28;20047;-77
2023/10/12 06:04:20;;;;;;;0.93;0.80;;;12.00;99.90;;;;;;4956632;28;20043;-75
2023/10/12 06:06:47;;;;;;;3.03;1.55;;;12.00;99.90;;;;;;4949670;28;20325;-75
2023/10/12 06:09:35;;;;;;;9.88;0.77;;;12.00;99.90;;;;;;4957709;28;20059;-75
2023/10/12 06:12:06;;;;;;;2.63;0.95;;;11.90;99.90;;;;;;4947620;28;20572;-75
2023/10/12 06:14:32;;;;;;;2.03;1.00;;;11.90;99.90;;;;;;4953798;28;20039;-75
2023/10/12 06:17:02;;;;;;;1.50;0.75;;;11.80;99.90;;;;;;4944374;28;20996;-75
2023/10/12 06:19:32;;;;;;;1.48;0.90;;;11.90;99.90;;;;;;4941193;28;20054;-75
2023/10/12 06:22:00;;;;;;;0.98;0.57;;;11.90;99.90;;;;;;4962132;28;20059;-75
2023/10/12 06:24:35;;;;;;;2.30;0.70;;;11.80;99.90;;;;;;4959345;28;20050;-75
2023/10/12 06:27:11;;;;;;;3.70;0.57;;;11.80;99.90;;;;;;4960390;28;20079;-75
2023/10/12 06:29:37;;;;;;;1.20;0.40;;;11.80;99.90;;;;;;4946307;28;20421;-75
2023/10/12 06:32:09;;;;;;;1.90;0.80;;;11.80;99.90;;;;;;4960256;28;20196;-75
2023/10/12 06:34:35;;;;;;;;;;;11.80;99.90;;;;;;4962493;28;20121;-75
2023/10/12 06:37:11;;;;;;;2.20;1.73;;;11.70;99.90;;;;;;4962399;28;19922;-74
2023/10/12 06:40:16;;;;;;;3.67;1.17;;;11.70;99.90;;;;;;4961921;28;20565;-75
2023/10/12 06:42:27;;;;;;;2.88;0.75;;;11.80;99.90;;;;;;4960872;28;20051;-75
2023/10/12 06:44:52;;;;;;;3.42;1.48;;;11.80;99.90;;;;;;4963205;28;20054;-75
2023/10/12 06:47:28;;;;;;;1.83;1.10;;;11.80;99.90;;;;;;4960320;28;20585;-75
2023/10/12 06:50:00;;;;;;;11.10;2.20;;;11.80;99.90;;;;;;4977603;28;20122;-75
2023/10/12 06:52:25;;;;;;;3.42;1.52;;;11.70;99.90;;;;;;4962433;28;20297;-75
2023/10/12 06:54:59;;;;;;;1.92;1.23;;;11.80;99.90;;;;;;4960972;28;20413;-75
2023/10/12 06:59:53;;;;;;;2.03;1.77;;;11.80;99.90;;;;;;4962074;28;20134;-75
2023/10/12 07:02:24;;;;;;;4.20;0.93;;;11.80;99.90;;;;;;4960975;28;20070;-75
2023/10/12 07:04:56;;;;;;;3.17;1.13;;;11.80;99.90;;;;;;4965551;28;20051;-75
2023/10/12 07:07:46;;;;;;;10.77;2.55;;;11.90;99.90;;;;;;4957226;28;20035;-75
2023/10/12 07:12:47;;;;;;;3.92;1.27;;;12.00;99.90;;;;;;4947380;28;20054;-75
2023/10/12 07:15:22;;;;;;;6.95;1.60;;;12.10;99.90;;;;;;4945414;28;20047;-75
2023/10/12 07:17:52;;;;;;;5.10;0.93;;;12.10;99.90;;;;;;4944767;28;20065;-75
2023/10/12 07:23:04;;;;;;;1.73;1.23;;;12.30;99.90;;;;;;4961550;28;20058;-75
2023/10/12 07:25:35;;;;;;;4.53;1.35;;;12.30;99.90;;;;;;4929730;28;20050;-75
2023/10/12 07:28:01;;;;;;;2.78;0.88;;;12.30;99.90;;;;;;4929591;29;20055;-75
2023/10/12 07:30:30;;;;;;;2.45;0.90;;;12.40;99.90;;;;;;4944831;28;20059;-75
2023/10/12 07:32:59;;;;;;;6.00;2.65;;;12.40;99.90;;;;;;4944432;29;20051;-75
2023/10/12 07:35:53;;;;;;;3.72;0.88;;;12.50;99.90;;;;;;4945228;28;20047;-75
2023/10/12 07:38:26;;;;;;;5.95;1.42;;;12.50;99.90;;;;;;4944883;28;20406;-75
2023/10/12 07:40:56;;;;;;;5.05;1.77;;;12.50;99.90;;;;;;4929229;29;20083;-75
2023/10/12 07:43:26;;;;;;;2.95;0.93;;;12.60;99.90;;;;;;4945242;28;20051;-75
2023/10/12 07:45:52;;;;;;;2.30;1.00;;;12.60;99.90;;;;;;4929932;29;20040;-75
2023/10/12 07:48:40;;;;;;;5.43;1.58;;;12.70;99.90;;;;;;4928079;29;20042;-75
2023/10/12 07:51:16;;;;;;;6.95;1.08;;;12.70;99.90;;;;;;4945617;28;20650;-75
2023/10/12 07:53:43;;;;;;;2.42;0.52;;;12.70;99.90;;;;;;4945243;28;20047;-75
2023/10/12 07:56:15;;;;;;;0.65;0.63;;;12.70;99.90;;;;;;4944786;28;20094;-76
2023/10/12 07:58:48;;;;;;;4.75;1.60;;;12.70;99.90;;;;;;4944661;28;20055;-76
2023/10/12 08:01:26;;;;;;;3.55;0.77;;;12.70;99.90;;;;;;4943670;28;20159;-75
2023/10/12 08:03:52;;;;;;;2.88;1.02;;;12.80;99.90;;;;;;4929112;29;20051;-75
2023/10/12 08:06:56;;;;;;;5.32;1.08;;;12.80;99.90;;;;;;4944678;28;20051;-75
2023/10/12 08:11:51;;;;;;;3.63;1.55;;;12.80;99.90;;;;;;4964022;28;20557;-75
2023/10/12 08:17:25;;;;;;;3.20;1.05;;;12.90;99.90;;;;;;4962776;28;20518;-75
2023/10/12 08:19:46;;;;;;;4.25;0.77;;;12.90;99.90;;;;;;4963090;28;20054;-75
2023/10/12 08:22:29;;;;;;;5.00;0.77;;;12.90;99.90;;;;;;4963551;28;20391;-75
2023/10/12 08:24:58;;;;;;;3.35;0.77;;;12.90;99.90;;;;;;4963636;28;20055;-75
2023/10/12 08:27:25;;;;;;;4.22;1.05;;;12.90;99.90;;;;;;4963838;28;20046;-75
2023/10/12 08:37:26;;;;;;;6.70;1.20;;;12.90;99.90;;;;;;4963406;28;20054;-75
2023/10/12 08:42:37;;;;;;;4.55;1.98;;;12.90;99.90;;;;;;4964681;28;20254;-75
2023/10/12 08:45:15;;;;;;;8.32;1.60;;;13.00;99.90;;;;;;4947841;28;20031;-75
2023/10/12 08:47:48;;;;;;;14.88;5.50;;;13.00;99.90;;;;;;4962598;28;20054;-75
2023/10/12 08:52:51;;;;;;;4.03;2.03;;;13.00;99.90;;;;;;4963448;28;20054;-75
2023/10/12 08:55:19;;;;;;;2.83;0.88;;;13.00;99.90;;;;;;4962850;28;20069;-75
2023/10/12 08:58:38;;;;;;;2.10;1.00;;;13.10;99.90;;;;;;4963378;28;20137;-75
2023/10/12 09:01:10;;;;;;;5.47;1.27;;;13.10;99.90;;;;;;4935749;28;20358;-75
2023/10/12 09:04:03;;;;;;;6.07;1.77;;;13.10;99.90;;;;;;4963335;28;20401;-75
2023/10/12 09:09:48;;;;;;;5.10;1.25;;;13.20;99.90;;;;;;4866289;29;20056;-75
2023/10/12 09:12:11;;;;;;;5.45;1.60;;;13.20;99.90;;;;;;4935872;28;20149;-75
2023/10/12 09:14:44;;;;;;;4.13;0.82;;;13.20;99.90;;;;;;4928007;29;20490;-75
2023/10/12 09:17:20;;;;;;;5.13;0.98;;;13.20;99.90;;;;;;4941941;28;20331;-75
2023/10/12 09:19:47;;;;;;;2.60;0.98;;;13.20;99.90;;;;;;4927133;29;20090;-75
2023/10/12 09:22:12;;;;;;;9.68;1.38;;;13.30;99.90;;;;;;4927145;29;20130;-75
2023/10/12 09:24:40;;;;;;;3.95;0.90;;;13.30;99.90;;;;;;4942996;28;20570;-75
2023/10/12 09:27:26;;;;;;;7.90;2.80;;;13.30;99.90;;;;;;4943406;28;20098;-75
2023/10/12 09:29:57;;;;;;;5.85;1.02;;;13.30;99.90;;;;;;4942349;28;20055;-75
2023/10/12 09:32:26;;;;;;;5.43;0.77;;;13.30;99.90;;;;;;4941907;28;20051;-75
2023/10/12 09:37:47;;;;;;;2.15;1.50;;;13.40;99.90;;;;;;4959120;28;20046;-76
2023/10/12 09:43:06;;;;;;;2.80;1.00;;;13.40;99.90;;;;;;4958938;28;20113;-76
2023/10/12 09:45:41;;;;;;;3.30;0.80;;;13.40;99.90;;;;;;4943415;28;20445;-77
2023/10/12 09:48:15;;;;;;;0.63;0.40;;;13.40;99.90;;;;;;4942625;28;20240;-75
2023/10/12 09:50:44;;;;;;;6.63;0.88;;;13.40;99.90;;;;;;4941989;28;20572;-75
2023/10/12 09:53:13;;;;;;;11.18;2.00;;;13.40;99.90;;;;;;4942033;28;20520;-75
2023/10/12 09:55:57;;;;;;;3.88;1.23;;;13.40;99.90;;;;;;4926993;29;20047;-75
2023/10/12 09:58:23;;;;;;;1.05;0.52;;;13.40;99.90;;;;;;4941912;28;20047;-75
2023/10/12 10:01:15;;;;;;;1.98;0.80;;;13.40;99.90;;;;;;4941787;28;20051;-76
2023/10/12 10:03:52;;;;;;;4.38;0.70;;;13.50;99.90;;;;;;4926309;29;20425;-76
2023/10/12 10:06:37;;;;;;;2.20;0.90;;;13.50;99.90;;;;;;4941709;28;20035;-76
2023/10/12 10:09:24;;;;;;;3.28;0.70;;;13.50;99.90;;;;;;4961236;28;20073;-77
2023/10/12 10:11:59;;;;;;;6.28;1.23;;;13.50;99.90;;;;;;4945626;28;20046;-76
2023/10/12 10:14:33;;;;;;;2.50;1.27;;;13.50;99.90;;;;;;4961467;28;20038;-76
2023/10/12 10:17:01;;;;;;;0.65;0.60;;;13.50;99.90;;;;;;4951453;28;20051;-75
2023/10/12 10:19:29;;;;;;;4.50;1.08;;;13.50;99.90;;;;;;4943277;28;20053;-75
2023/10/12 10:22:05;;;;;;;1.35;0.90;;;13.50;99.90;;;;;;4943433;28;20054;-74
2023/10/12 10:24:43;;;;;;;2.42;0.77;;;13.50;99.90;;;;;;4953541;28;20080;-74
2023/10/12 10:27:13;;;;;;;5.60;1.15;;;13.50;99.90;;;;;;4942247;28;20047;-77
2023/10/12 10:30:18;;;;;;;2.83;1.10;;;13.50;99.90;;;;;;4942133;28;20058;-76
2023/10/12 10:33:03;;;;;;;1.98;1.08;;;13.50;99.90;;;;;;4925491;29;20125;-75
2023/10/12 10:35:58;;;;;;;2.00;0.60;;;13.60;99.90;;;;;;4954436;28;20055;-74
2023/10/12 10:38:30;;;;;;;3.50;0.90;;;13.60;99.90;;;;;;4954626;28;20050;-75
2023/10/12 10:41:05;;;;;;;3.15;0.80;;;13.60;99.90;;;;;;4947689;28;20078;-74
2023/10/12 10:43:32;;;;;;;2.03;0.50;;;13.60;99.90;;;;;;4947752;28;20039;-75
2023/10/12 10:46:02;;;;;;;3.35;0.88;;;13.70;99.90;;;;;;4959116;28;20054;-75
2023/10/12 10:48:29;;;;;;;3.35;0.68;;;13.70;99.90;;;;;;4960993;28;20505;-75
2023/10/12 10:50:55;;;;;;;2.40;1.17;;;13.80;99.90;;;;;;4951491;28;20027;-75
2023/10/12 10:53:20;;;;;;;3.40;1.02;;;13.80;99.90;;;;;;4951101;28;20035;-75
2023/10/12 10:55:50;;;;;;;0.93;0.60;;;13.90;99.90;;;;;;4942328;28;20487;-75
2023/10/12 10:58:19;;;;;;;2.38;0.68;;;13.90;99.90;;;;;;4941909;28;20525;-75
2023/10/12 11:00:46;;;;;;;2.38;0.52;;;14.00;99.90;;;;;;4928346;28;20043;-75
2023/10/12 11:03:18;;;;;;;2.42;1.08;;;14.00;99.90;;;;;;4958720;28;20042;-76
2023/10/12 11:05:46;;;;;;;2.97;0.68;;;14.00;99.90;;;;;;4966118;28;20058;-75
2023/10/12 11:08:26;;;;;;;4.03;1.15;;;14.10;99.90;;;;;;4964611;28;20182;-75
2023/10/12 11:13:38;;;;;;;3.53;0.90;;;14.20;99.90;;;;;;4946344;28;20106;-74
2023/10/12 11:16:51;;;;;;;3.05;0.60;;;14.20;99.90;;;;;;4941607;28;20044;-73
2023/10/12 11:18:54;;;;;;;1.08;0.50;;;14.30;99.90;;;;;;4945117;28;20105;-74
2023/10/12 11:21:21;;;;;;;4.85;0.70;;;14.40;99.90;;;;;;4957630;28;20066;-74
2023/10/12 11:23:50;;;;;;;1.25;0.60;;;14.40;99.90;;;;;;4951884;28;20043;-74
2023/10/12 11:26:19;;;;;;;4.53;0.90;;;14.40;99.90;;;;;;4953450;28;20126;-74
2023/10/12 11:28:46;;;;;;;3.42;0.50;;;14.50;99.90;;;;;;4947805;28;20143;-76
2023/10/12 11:31:30;;;;;;;2.20;0.93;;;14.50;99.90;;;;;;4950677;28;20112;-75
2023/10/12 11:33:57;;;;;;;2.50;0.77;;;14.50;99.90;;;;;;4947503;28;20493;-78
2023/10/12 11:36:24;;;;;;;1.33;0.65;;;14.50;99.90;;;;;;4937715;28;20358;-77
2023/10/12 11:39:03;;;;;;;1.67;0.60;;;14.50;99.90;;;;;;4971744;28;20061;-77
2023/10/12 11:41:30;;;;;;;1.92;0.75;;;14.60;99.90;;;;;;4953351;28;20047;-77
2023/10/12 11:44:05;;;;;;;2.65;1.15;;;14.60;99.90;;;;;;4944522;28;20568;-77
2023/10/12 11:46:45;;;;;;;1.60;1.48;;;14.60;99.90;;;;;;4970961;28;20055;-77
2023/10/12 11:49:11;;;;;;;1.85;0.77;;;14.60;99.90;;;;;;4942571;28;20549;-77
2023/10/12 11:51:53;;;;;;;1.60;0.60;;;14.50;99.90;;;;;;4960563;28;20138;-77
2023/10/12 11:54:22;;;;;;;3.10;0.90;;;14.50;99.90;;;;;;4959076;28;20057;-76
2023/10/12 11:56:49;;;;;;;12.00;1.20;;;14.50;99.90;;;;;;4967659;28;20053;-77
2023/10/12 11:59:22;;;;;;;4.07;1.30;;;14.60;99.90;;;;;;4945304;28;20043;-78
2023/10/12 12:01:54;;;;;;;6.75;1.33;;;14.60;99.90;;;;;;4954270;28;20047;-77
2023/10/12 12:04:30;;;;;;;3.13;0.93;;;14.60;99.90;;;;;;4959836;28;20039;-76
2023/10/12 12:06:57;;;;;;;0.90;0.63;;;14.60;99.90;;;;;;4946083;28;20183;-75
2023/10/12 12:09:23;;;;;;;10.30;1.02;;;14.70;99.90;;;;;;4940713;28;20401;-76
2023/10/12 12:11:49;;;;;;;2.83;0.90;;;14.70;99.90;;;;;;4935319;28;20046;-75
2023/10/12 12:14:15;;;;;;;7.82;1.73;;;14.60;99.90;;;;;;4963741;28;20314;-76
2023/10/12 12:16:40;;;;;;;4.20;0.65;;;14.60;99.90;;;;;;4945948;28;20054;-76
2023/10/12 12:19:06;;;;;;;4.05;0.90;;;14.70;99.90;;;;;;4938032;28;20109;-76
2023/10/12 12:21:34;;;;;;;2.38;0.82;;;14.60;99.90;;;;;;4964519;28;20046;-76
2023/10/12 12:26:56;;;;;;;4.03;1.00;;;14.60;99.90;;;;;;4960074;28;20046;-75
2023/10/12 12:29:26;;;;;;;3.58;1.10;;;14.70;99.90;;;;;;4962326;28;20122;-75
2023/10/12 12:31:56;;;;;;;4.68;0.82;;;14.70;99.90;;;;;;4941611;28;20066;-75
2023/10/12 12:34:38;;;;;;;4.82;0.88;;;14.70;99.90;;;;;;4957198;28;20567;-74
2023/10/12 12:37:05;;;;;;;2.53;1.40;;;14.70;99.90;;;;;;4961329;28;20113;-74
2023/10/12 12:39:33;;;;;;;3.80;0.85;;;14.60;99.90;;;;;;4957291;28;20050;-75
2023/10/12 12:41:59;;;;;;;5.50;0.75;;;14.70;99.90;;;;;;4947330;28;20133;-74
2023/10/12 12:44:25;;;;;;;1.05;0.85;;;14.70;99.90;;;;;;4961048;28;20138;-74
2023/10/12 12:46:50;;;;;;;1.70;0.52;;;14.70;99.90;;;;;;4957389;28;20050;-74
2023/10/12 12:49:16;;;;;;;6.30;0.80;;;14.70;99.90;;;;;;4961596;28;20042;-74
2023/10/12 12:51:43;;;;;;;2.95;0.82;;;14.70;99.90;;;;;;4953731;28;20071;-74
2023/10/12 12:54:08;;;;;;;3.20;0.77;;;14.70;99.90;;;;;;4954760;28;20057;-75
2023/10/12 12:56:36;;;;;;;2.92;0.75;;;14.70;99.90;;;;;;4960421;28;20043;-75
2023/10/12 12:59:04;;;;;;;2.03;1.10;;;14.70;99.90;;;;;;4958668;28;20094;-74
2023/10/12 13:01:31;;;;;;;12.10;1.27;;;14.70;99.90;;;;;;4952657;28;20126;-75
2023/10/12 13:03:57;;;;;;;2.63;0.95;;;14.70;99.90;;;;;;4935657;28;20047;-75
2023/10/12 13:06:26;;;;;;;3.42;1.02;;;14.60;99.90;;;;;;4950826;28;20027;-74
2023/10/12 13:08:52;;;;;;;3.67;0.73;;;14.60;99.90;;;;;;4960059;28;20051;-75
2023/10/12 13:11:21;;;;;;;3.60;0.90;;;14.60;99.90;;;;;;4950741;28;20718;-73
2023/10/12 13:13:48;;;;;;;3.15;0.50;;;14.60;99.90;;;;;;4953084;28;20062;-73
2023/10/12 13:16:14;;;;;;;4.05;0.80;;;14.60;99.90;;;;;;4961758;28;20141;-73
2023/10/12 13:18:45;;;;;;;3.00;1.02;;;14.60;99.90;;;;;;4953943;28;20050;-74
2023/10/12 13:21:14;;;;;;;1.45;0.85;;;14.60;99.90;;;;;;4978391;28;20136;-73
2023/10/12 13:23:40;;;;;;;3.65;0.85;;;14.60;99.90;;;;;;4976124;28;20043;-73
2023/10/12 13:26:10;;;;;;;2.42;0.55;;;14.60;99.90;;;;;;4949924;28;20481;-73
2023/10/12 13:28:38;;;;;;;3.30;0.68;;;14.50;99.90;;;;;;4946981;28;20125;-73
2023/10/12 13:31:05;;;;;;;3.20;1.25;;;14.60;99.90;;;;;;4944034;28;20537;-73
2023/10/12 13:33:31;;;;;;;5.13;1.25;;;14.50;99.90;;;;;;4954228;28;20051;-73
2023/10/12 13:35:57;;;;;;;5.80;0.65;;;14.50;99.90;;;;;;4943100;28;20053;-73
2023/10/12 13:38:24;;;;;;;2.88;0.73;;;14.50;99.90;;;;;;4948532;28;20046;-73
2023/10/12 13:40:50;;;;;;;2.60;0.90;;;14.50;99.90;;;;;;4947828;28;20050;-74
2023/10/12 13:43:21;;;;;;;3.38;1.52;;;14.50;99.90;;;;;;4956573;28;20394;-73
2023/10/12 13:45:52;;;;;;;2.15;0.75;;;14.50;99.90;;;;;;4947716;28;20462;-74
2023/10/12 13:48:22;;;;;;;3.38;1.48;;;14.40;99.90;;;;;;4972299;28;20046;-74
2023/10/12 13:51:00;;;;;;;2.28;0.40;;;14.50;99.90;;;;;;4950508;28;20050;-74
2023/10/12 13:53:29;;;;;;;3.33;0.85;;;14.40;99.90;;;;;;4946915;28;20039;-73
2023/10/12 13:55:56;;;;;;;3.83;1.40;;;14.50;99.90;;;;;;4955917;28;20058;-73
2023/10/12 13:58:24;;;;;;;2.67;0.55;;;14.50;99.90;;;;;;4948888;28;20130;-74
2023/10/12 14:00:54;;;;;;;1.48;0.43;;;14.50;99.90;;;;;;4944024;28;20550;-73
2023/10/12 14:03:28;;;;;;;2.72;0.73;;;14.50;99.90;;;;;;4943906;28;20110;-73
2023/10/12 14:05:57;;;;;;;3.22;0.90;;;14.50;99.90;;;;;;4946537;28;20051;-73
2023/10/12 14:08:28;;;;;;;3.85;1.75;;;14.50;99.90;;;;;;4953998;28;20039;-74
2023/10/12 14:10:54;;;;;;;1.65;0.88;;;14.40;99.90;;;;;;4954810;28;20058;-72
2023/10/12 14:13:20;;;;;;;2.53;1.00;;;14.40;99.90;;;;;;4964001;28;20045;-73
2023/10/12 14:15:47;;;;;;;3.15;1.08;;;14.40;99.90;;;;;;4950184;28;20491;-72
2023/10/12 14:18:16;;;;;;;2.03;0.45;;;14.40;99.90;;;;;;4946989;28;20078;-71
2023/10/12 14:20:46;;;;;;;3.13;0.75;;;14.40;99.90;;;;;;4950466;28;20126;-71